sensor_id;sensor_type;location;lat;lon;timestamp;pressure;altitude;pressure_sealevel;temperature;humidity
17525;BME280;40431;52.198;9.902;2022-07-21T00:01:26;100640.25;;;24.84;51.75
17525;BME280;40431;52.198;9.902;2022-07-21T00:03:52;100623.63;;;24.84;51.90
17525;BME280;40431;52.198;9.902;2022-07-21T00:06:18;100614.25;;;24.86;51.95
17525;BME280;40431;52.198;9.902;2022-07-21T00:08:45;100612.53;;;24.84;52.07
17525;BME280;40431;52.198;9.902;2022-07-21T00:11:11;100609.69;;;24.93;52.15
17525;BME280;40431;52.198;9.902;2022-07-21T00:13:38;100600.31;;;24.94;52.33
17525;BME280;40431;52.198;9.902;2022-07-21T00:16:06;100608.63;;;24.94;52.46
17525;BME280;40431;52.198;9.902;2022-07-21T00:18:32;100599.78;;;24.98;52.51
17525;BME280;40431;52.198;9.902;2022-07-21T00:20:59;100612.41;;;25.01;52.58
17525;BME280;40431;52.198;9.902;2022-07-21T00:23:26;100610.66;;;25.00;52.64
17525;BME280;40431;52.198;9.902;2022-07-21T00:25:53;100613.53;;;24.92;52.80
17525;BME280;40431;52.198;9.902;2022-07-21T00:28:20;100639.44;;;24.99;52.79
17525;BME280;40431;52.198;9.902;2022-07-21T00:30:47;100655.72;;;25.02;52.77
17525;BME280;40431;52.198;9.902;2022-07-21T00:33:15;100665.72;;;24.88;53.24
17525;BME280;40431;52.198;9.902;2022-07-21T00:35:41;100672.13;;;24.89;53.21
17525;BME280;40431;52.198;9.902;2022-07-21T00:38:07;100670.31;;;24.73;53.82
17525;BME280;40431;52.198;9.902;2022-07-21T00:40:34;100678.41;;;24.82;53.75
17525;BME280;40431;52.198;9.902;2022-07-21T00:43:00;100688.81;;;24.80;53.74
17525;BME280;40431;52.198;9.902;2022-07-21T00:45:27;100690.56;;;24.81;54.01
17525;BME280;40431;52.198;9.902;2022-07-21T00:47:53;100692.03;;;24.69;54.28
17525;BME280;40431;52.198;9.902;2022-07-21T00:50:22;100685.44;;;24.62;54.88
17525;BME280;40431;52.198;9.902;2022-07-21T00:52:48;100692.47;;;24.49;55.62
17525;BME280;40431;52.198;9.902;2022-07-21T00:55:16;100696.63;;;24.45;56.85
17525;BME280;40431;52.198;9.902;2022-07-21T00:57:43;100694.72;;;24.46;58.19
17525;BME280;40431;52.198;9.902;2022-07-21T01:00:13;100686.28;;;24.39;59.67
17525;BME280;40431;52.198;9.902;2022-07-21T01:02:40;100694.25;;;24.34;61.98
17525;BME280;40431;52.198;9.902;2022-07-21T01:05:08;100682.38;;;24.17;63.06
17525;BME280;40431;52.198;9.902;2022-07-21T01:07:39;100688.56;;;24.27;63.45
17525;BME280;40431;52.198;9.902;2022-07-21T01:10:06;100679.59;;;24.25;64.08
17525;BME280;40431;52.198;9.902;2022-07-21T01:12:33;100685.66;;;24.21;64.43
17525;BME280;40431;52.198;9.902;2022-07-21T01:14:59;100679.09;;;24.22;64.72
17525;BME280;40431;52.198;9.902;2022-07-21T01:17:26;100673.59;;;24.13;65.63
17525;BME280;40431;52.198;9.902;2022-07-21T01:19:52;100637.91;;;24.10;66.16
17525;BME280;40431;52.198;9.902;2022-07-21T01:22:20;100638.88;;;23.86;67.58
17525;BME280;40431;52.198;9.902;2022-07-21T01:24:46;100651.50;;;23.89;67.57
17525;BME280;40431;52.198;9.902;2022-07-21T01:27:13;100662.09;;;23.93;67.29
17525;BME280;40431;52.198;9.902;2022-07-21T01:29:39;100661.19;;;23.84;67.88
17525;BME280;40431;52.198;9.902;2022-07-21T01:32:06;100666.56;;;23.86;67.76
17525;BME280;40431;52.198;9.902;2022-07-21T01:34:32;100656.50;;;23.85;68.47
17525;BME280;40431;52.198;9.902;2022-07-21T01:36:59;100655.69;;;23.76;68.62
17525;BME280;40431;52.198;9.902;2022-07-21T01:39:26;100665.41;;;23.64;69.48
17525;BME280;40431;52.198;9.902;2022-07-21T01:42:10;100663.34;;;23.66;69.67
17525;BME280;40431;52.198;9.902;2022-07-21T01:44:37;100638.28;;;23.59;69.98
17525;BME280;40431;52.198;9.902;2022-07-21T01:47:03;100611.28;;;23.61;69.91
17525;BME280;40431;52.198;9.902;2022-07-21T01:49:30;100636.75;;;23.48;70.71
17525;BME280;40431;52.198;9.902;2022-07-21T01:51:56;100661.31;;;23.43;71.13
17525;BME280;40431;52.198;9.902;2022-07-21T01:54:22;100639.38;;;23.33;71.83
17525;BME280;40431;52.198;9.902;2022-07-21T01:56:50;100621.91;;;23.33;71.81
17525;BME280;40431;52.198;9.902;2022-07-21T01:59:17;100647.31;;;23.37;71.63
17525;BME280;40431;52.198;9.902;2022-07-21T02:01:43;100686.19;;;23.51;71.63
17525;BME280;40431;52.198;9.902;2022-07-21T02:04:10;100672.00;;;23.46;72.21
17525;BME280;40431;52.198;9.902;2022-07-21T02:06:36;100662.53;;;23.41;72.55
17525;BME280;40431;52.198;9.902;2022-07-21T02:09:03;100655.97;;;23.42;73.21
17525;BME280;40431;52.198;9.902;2022-07-21T02:11:29;100652.84;;;23.37;73.93
17525;BME280;40431;52.198;9.902;2022-07-21T02:13:57;100649.03;;;23.29;75.27
17525;BME280;40431;52.198;9.902;2022-07-21T02:16:23;100632.44;;;23.21;75.44
17525;BME280;40431;52.198;9.902;2022-07-21T02:18:50;100621.91;;;22.92;77.16
17525;BME280;40431;52.198;9.902;2022-07-21T02:21:16;100639.19;;;22.85;78.46
17525;BME280;40431;52.198;9.902;2022-07-21T02:23:43;100619.66;;;22.71;79.39
17525;BME280;40431;52.198;9.902;2022-07-21T02:26:09;100611.19;;;22.56;80.25
17525;BME280;40431;52.198;9.902;2022-07-21T02:28:36;100618.06;;;22.43;81.53
17525;BME280;40431;52.198;9.902;2022-07-21T02:31:04;100635.94;;;22.31;81.25
17525;BME280;40431;52.198;9.902;2022-07-21T02:33:30;100667.56;;;22.28;82.00
17525;BME280;40431;52.198;9.902;2022-07-21T02:35:57;100694.34;;;22.36;81.81
17525;BME280;40431;52.198;9.902;2022-07-21T02:38:23;100703.72;;;22.43;81.01
17525;BME280;40431;52.198;9.902;2022-07-21T02:40:50;100723.06;;;22.43;81.72
17525;BME280;40431;52.198;9.902;2022-07-21T02:43:16;100725.31;;;22.48;82.47
17525;BME280;40431;52.198;9.902;2022-07-21T02:45:42;100707.53;;;22.50;82.29
17525;BME280;40431;52.198;9.902;2022-07-21T02:48:11;100677.47;;;22.47;82.04
17525;BME280;40431;52.198;9.902;2022-07-21T02:50:40;100658.31;;;22.54;81.49
17525;BME280;40431;52.198;9.902;2022-07-21T02:53:08;100650.88;;;22.38;81.45
17525;BME280;40431;52.198;9.902;2022-07-21T02:55:35;100662.91;;;22.29;82.68
17525;BME280;40431;52.198;9.902;2022-07-21T02:58:04;100638.03;;;22.29;82.52
17525;BME280;40431;52.198;9.902;2022-07-21T03:00:30;100644.41;;;22.29;82.33
17525;BME280;40431;52.198;9.902;2022-07-21T03:02:57;100640.28;;;22.33;82.28
17525;BME280;40431;52.198;9.902;2022-07-21T03:05:24;100623.91;;;22.40;82.36
17525;BME280;40431;52.198;9.902;2022-07-21T03:07:51;100617.19;;;22.43;83.24
17525;BME280;40431;52.198;9.902;2022-07-21T03:10:17;100613.06;;;22.47;82.39
17525;BME280;40431;52.198;9.902;2022-07-21T03:12:44;100591.44;;;22.26;83.33
17525;BME280;40431;52.198;9.902;2022-07-21T03:15:10;100592.19;;;22.01;84.14
17525;BME280;40431;52.198;9.902;2022-07-21T03:17:36;100609.00;;;22.16;83.78
17525;BME280;40431;52.198;9.902;2022-07-21T03:20:04;100613.66;;;22.24;83.10
17525;BME280;40431;52.198;9.902;2022-07-21T03:22:32;100602.88;;;22.39;82.36
17525;BME280;40431;52.198;9.902;2022-07-21T03:24:58;100594.25;;;22.42;81.34
17525;BME280;40431;52.198;9.902;2022-07-21T03:27:24;100597.53;;;22.46;80.95
17525;BME280;40431;52.198;9.902;2022-07-21T03:29:51;100588.72;;;22.50;80.31
17525;BME280;40431;52.198;9.902;2022-07-21T03:32:17;100608.41;;;22.47;81.06
17525;BME280;40431;52.198;9.902;2022-07-21T03:34:44;100628.28;;;22.51;81.21
17525;BME280;40431;52.198;9.902;2022-07-21T03:37:11;100640.19;;;22.60;80.77
17525;BME280;40431;52.198;9.902;2022-07-21T03:39:38;100655.38;;;22.56;80.83
17525;BME280;40431;52.198;9.902;2022-07-21T03:42:05;100658.50;;;22.52;81.96
17525;BME280;40431;52.198;9.902;2022-07-21T03:44:31;100646.06;;;22.48;82.24
17525;BME280;40431;52.198;9.902;2022-07-21T03:46:57;100628.41;;;22.41;82.07
17525;BME280;40431;52.198;9.902;2022-07-21T03:49:24;100609.03;;;22.33;82.89
17525;BME280;40431;52.198;9.902;2022-07-21T03:51:51;100615.41;;;22.33;83.70
17525;BME280;40431;52.198;9.902;2022-07-21T03:54:17;100631.78;;;22.27;84.65
17525;BME280;40431;52.198;9.902;2022-07-21T03:56:45;100644.63;;;22.36;85.44
17525;BME280;40431;52.198;9.902;2022-07-21T03:59:11;100646.50;;;22.27;86.17
17525;BME280;40431;52.198;9.902;2022-07-21T04:01:37;100665.31;;;22.32;87.27
17525;BME280;40431;52.198;9.902;2022-07-21T04:04:04;100673.75;;;22.30;87.58
17525;BME280;40431;52.198;9.902;2022-07-21T04:06:30;100664.91;;;22.18;89.21
17525;BME280;40431;52.198;9.902;2022-07-21T04:08:57;100683.19;;;22.11;90.13
17525;BME280;40431;52.198;9.902;2022-07-21T04:11:23;100688.22;;;22.16;91.36
17525;BME280;40431;52.198;9.902;2022-07-21T04:13:51;100696.31;;;22.17;91.86
17525;BME280;40431;52.198;9.902;2022-07-21T04:16:17;100711.69;;;22.20;91.68
17525;BME280;40431;52.198;9.902;2022-07-21T04:18:44;100714.81;;;22.25;91.64
17525;BME280;40431;52.198;9.902;2022-07-21T04:21:10;100719.50;;;22.25;91.43
17525;BME280;40431;52.198;9.902;2022-07-21T04:23:36;100729.34;;;22.27;91.34
17525;BME280;40431;52.198;9.902;2022-07-21T04:26:03;100741.63;;;22.33;91.15
17525;BME280;40431;52.198;9.902;2022-07-21T04:28:29;100740.91;;;22.31;91.58
17525;BME280;40431;52.198;9.902;2022-07-21T04:30:57;100745.03;;;22.27;91.34
17525;BME280;40431;52.198;9.902;2022-07-21T04:33:24;100755.41;;;22.25;90.87
17525;BME280;40431;52.198;9.902;2022-07-21T04:35:50;100746.09;;;22.26;90.90
17525;BME280;40431;52.198;9.902;2022-07-21T04:38:16;100757.16;;;22.26;91.05
17525;BME280;40431;52.198;9.902;2022-07-21T04:40:43;100760.97;;;22.33;90.48
17525;BME280;40431;52.198;9.902;2022-07-21T04:43:10;100761.19;;;22.40;89.49
17525;BME280;40431;52.198;9.902;2022-07-21T04:45:36;100756.69;;;22.39;88.73
17525;BME280;40431;52.198;9.902;2022-07-21T04:48:04;100739.72;;;22.33;87.91
17525;BME280;40431;52.198;9.902;2022-07-21T04:50:31;100734.75;;;22.37;87.67
17525;BME280;40431;52.198;9.902;2022-07-21T04:52:58;100732.72;;;22.39;87.71
17525;BME280;40431;52.198;9.902;2022-07-21T04:55:24;100745.66;;;22.47;87.16
17525;BME280;40431;52.198;9.902;2022-07-21T04:57:52;100736.72;;;22.53;86.21
17525;BME280;40431;52.198;9.902;2022-07-21T05:00:21;100742.97;;;22.55;85.87
17525;BME280;40431;52.198;9.902;2022-07-21T05:02:49;100735.84;;;22.44;84.61
17525;BME280;40431;52.198;9.902;2022-07-21T05:05:17;100739.44;;;22.37;84.79
17525;BME280;40431;52.198;9.902;2022-07-21T05:07:44;100744.66;;;22.22;86.32
17525;BME280;40431;52.198;9.902;2022-07-21T05:10:12;100740.31;;;22.11;87.39
17525;BME280;40431;52.198;9.902;2022-07-21T05:12:39;100736.03;;;22.16;88.49
17525;BME280;40431;52.198;9.902;2022-07-21T05:15:07;100732.41;;;22.16;87.57
17525;BME280;40431;52.198;9.902;2022-07-21T05:17:34;100733.94;;;22.10;87.85
17525;BME280;40431;52.198;9.902;2022-07-21T05:20:01;100730.16;;;22.11;88.37
17525;BME280;40431;52.198;9.902;2022-07-21T05:22:30;100735.66;;;22.11;88.29
17525;BME280;40431;52.198;9.902;2022-07-21T05:24:56;100739.94;;;22.06;88.84
17525;BME280;40431;52.198;9.902;2022-07-21T05:27:22;100746.16;;;22.08;89.06
17525;BME280;40431;52.198;9.902;2022-07-21T05:29:49;100751.16;;;22.04;89.55
17525;BME280;40431;52.198;9.902;2022-07-21T05:32:15;100741.66;;;22.07;89.59
17525;BME280;40431;52.198;9.902;2022-07-21T05:34:41;100746.34;;;22.06;89.58
17525;BME280;40431;52.198;9.902;2022-07-21T05:37:08;100751.69;;;22.08;89.02
17525;BME280;40431;52.198;9.902;2022-07-21T05:39:36;100753.72;;;22.06;88.75
17525;BME280;40431;52.198;9.902;2022-07-21T05:42:02;100755.44;;;21.98;88.97
17525;BME280;40431;52.198;9.902;2022-07-21T05:44:29;100756.63;;;21.96;89.28
17525;BME280;40431;52.198;9.902;2022-07-21T05:46:55;100759.16;;;21.89;89.50
17525;BME280;40431;52.198;9.902;2022-07-21T05:49:21;100753.88;;;21.96;89.11
17525;BME280;40431;52.198;9.902;2022-07-21T05:51:48;100757.66;;;21.95;89.35
17525;BME280;40431;52.198;9.902;2022-07-21T05:54:14;100763.16;;;21.95;89.08
17525;BME280;40431;52.198;9.902;2022-07-21T05:56:42;100772.72;;;22.00;88.66
17525;BME280;40431;52.198;9.902;2022-07-21T05:59:09;100781.47;;;21.96;88.28
17525;BME280;40431;52.198;9.902;2022-07-21T06:01:35;100789.72;;;21.88;89.40
17525;BME280;40431;52.198;9.902;2022-07-21T06:04:02;100783.28;;;21.87;90.25
17525;BME280;40431;52.198;9.902;2022-07-21T06:06:28;100781.91;;;21.83;88.63
17525;BME280;40431;52.198;9.902;2022-07-21T06:08:54;100778.31;;;21.64;89.88
17525;BME280;40431;52.198;9.902;2022-07-21T06:11:21;100790.44;;;21.72;89.98
17525;BME280;40431;52.198;9.902;2022-07-21T06:13:49;100782.41;;;21.78;89.47
17525;BME280;40431;52.198;9.902;2022-07-21T06:16:15;100792.09;;;21.82;88.75
17525;BME280;40431;52.198;9.902;2022-07-21T06:18:41;100783.63;;;21.84;89.17
17525;BME280;40431;52.198;9.902;2022-07-21T06:21:08;100803.00;;;21.92;88.64
17525;BME280;40431;52.198;9.902;2022-07-21T06:23:34;100800.41;;;21.91;88.60
17525;BME280;40431;52.198;9.902;2022-07-21T06:26:01;100798.59;;;21.99;87.97
17525;BME280;40431;52.198;9.902;2022-07-21T06:28:27;100804.97;;;22.00;88.01
17525;BME280;40431;52.198;9.902;2022-07-21T06:30:55;100800.25;;;21.92;88.35
17525;BME280;40431;52.198;9.902;2022-07-21T06:33:21;100808.22;;;21.95;89.39
17525;BME280;40431;52.198;9.902;2022-07-21T06:35:48;100808.59;;;22.00;88.25
17525;BME280;40431;52.198;9.902;2022-07-21T06:38:14;100813.28;;;22.08;88.34
17525;BME280;40431;52.198;9.902;2022-07-21T06:40:41;100817.31;;;22.14;87.54
17525;BME280;40431;52.198;9.902;2022-07-21T06:43:07;100819.91;;;22.15;86.67
17525;BME280;40431;52.198;9.902;2022-07-21T06:45:33;100826.06;;;22.09;86.20
17525;BME280;40431;52.198;9.902;2022-07-21T06:48:03;100807.25;;;22.05;86.53
17525;BME280;40431;52.198;9.902;2022-07-21T06:50:30;100808.81;;;22.07;86.26
17525;BME280;40431;52.198;9.902;2022-07-21T06:52:57;100807.75;;;22.08;85.90
17525;BME280;40431;52.198;9.902;2022-07-21T06:55:23;100820.94;;;22.14;85.96
17525;BME280;40431;52.198;9.902;2022-07-21T06:57:50;100819.78;;;22.25;86.34
17525;BME280;40431;52.198;9.902;2022-07-21T07:00:17;100821.00;;;22.31;84.75
17525;BME280;40431;52.198;9.902;2022-07-21T07:02:43;100822.31;;;22.37;84.85
17525;BME280;40431;52.198;9.902;2022-07-21T07:05:11;100811.88;;;22.30;84.30
17525;BME280;40431;52.198;9.902;2022-07-21T07:07:38;100804.38;;;22.41;84.30
17525;BME280;40431;52.198;9.902;2022-07-21T07:10:05;100796.47;;;22.46;83.47
17525;BME280;40431;52.198;9.902;2022-07-21T07:12:32;100795.63;;;22.54;83.59
17525;BME280;40431;52.198;9.902;2022-07-21T07:14:58;100803.69;;;22.47;83.60
17525;BME280;40431;52.198;9.902;2022-07-21T07:17:25;100811.84;;;22.48;84.16
17525;BME280;40431;52.198;9.902;2022-07-21T07:19:51;100815.50;;;22.65;83.41
17525;BME280;40431;52.198;9.902;2022-07-21T07:22:19;100814.38;;;22.76;82.54
17525;BME280;40431;52.198;9.902;2022-07-21T07:24:45;100821.97;;;22.82;82.31
17525;BME280;40431;52.198;9.902;2022-07-21T07:27:12;100820.66;;;22.95;80.98
17525;BME280;40431;52.198;9.902;2022-07-21T07:29:38;100818.38;;;22.90;81.65
17525;BME280;40431;52.198;9.902;2022-07-21T07:32:05;100820.97;;;22.92;81.26
17525;BME280;40431;52.198;9.902;2022-07-21T07:34:31;100816.34;;;23.00;81.43
17525;BME280;40431;52.198;9.902;2022-07-21T07:36:57;100813.09;;;23.13;81.31
17525;BME280;40431;52.198;9.902;2022-07-21T07:39:25;100819.50;;;23.14;80.10
17525;BME280;40431;52.198;9.902;2022-07-21T07:41:51;100835.53;;;23.02;79.85
17525;BME280;40431;52.198;9.902;2022-07-21T07:44:19;100824.81;;;23.07;79.95
17525;BME280;40431;52.198;9.902;2022-07-21T07:46:46;100834.81;;;23.00;79.14
17525;BME280;40431;52.198;9.902;2022-07-21T07:49:12;100840.31;;;22.83;79.38
17525;BME280;40431;52.198;9.902;2022-07-21T07:51:42;100850.50;;;22.83;79.97
17525;BME280;40431;52.198;9.902;2022-07-21T07:54:09;100843.53;;;22.71;80.24
17525;BME280;40431;52.198;9.902;2022-07-21T07:56:36;100841.03;;;22.51;81.53
17525;BME280;40431;52.198;9.902;2022-07-21T07:59:03;100848.78;;;22.47;81.88
17525;BME280;40431;52.198;9.902;2022-07-21T08:01:29;100863.25;;;22.41;82.09
17525;BME280;40431;52.198;9.902;2022-07-21T08:03:55;100855.53;;;22.27;82.18
17525;BME280;40431;52.198;9.902;2022-07-21T08:06:22;100866.91;;;22.24;82.63
17525;BME280;40431;52.198;9.902;2022-07-21T08:08:48;100863.66;;;22.02;84.12
17525;BME280;40431;52.198;9.902;2022-07-21T08:11:15;100874.69;;;22.02;84.01
17525;BME280;40431;52.198;9.902;2022-07-21T08:13:42;100867.50;;;22.09;85.68
17525;BME280;40431;52.198;9.902;2022-07-21T08:16:09;100877.53;;;22.10;86.84
17525;BME280;40431;52.198;9.902;2022-07-21T08:18:37;100875.78;;;22.09;87.34
17525;BME280;40431;52.198;9.902;2022-07-21T08:21:04;100886.50;;;22.12;88.28
17525;BME280;40431;52.198;9.902;2022-07-21T08:23:30;100881.97;;;22.03;88.44
17525;BME280;40431;52.198;9.902;2022-07-21T08:25:56;100882.38;;;21.90;89.39
17525;BME280;40431;52.198;9.902;2022-07-21T08:28:23;100895.78;;;21.85;88.94
17525;BME280;40431;52.198;9.902;2022-07-21T08:30:50;100889.84;;;21.98;88.11
17525;BME280;40431;52.198;9.902;2022-07-21T08:33:17;100879.22;;;22.03;85.83
17525;BME280;40431;52.198;9.902;2022-07-21T08:35:43;100873.69;;;22.03;86.31
17525;BME280;40431;52.198;9.902;2022-07-21T08:38:10;100881.56;;;21.98;85.17
17525;BME280;40431;52.198;9.902;2022-07-21T08:40:38;100879.22;;;22.03;85.76
17525;BME280;40431;52.198;9.902;2022-07-21T08:43:06;100886.44;;;22.04;84.66
17525;BME280;40431;52.198;9.902;2022-07-21T08:45:34;100879.09;;;22.13;83.93
17525;BME280;40431;52.198;9.902;2022-07-21T08:48:03;100889.97;;;22.14;84.13
17525;BME280;40431;52.198;9.902;2022-07-21T08:50:32;100889.63;;;22.17;83.75
17525;BME280;40431;52.198;9.902;2022-07-21T08:52:59;100878.13;;;22.22;83.86
17525;BME280;40431;52.198;9.902;2022-07-21T08:55:28;100875.66;;;22.37;83.15
17525;BME280;40431;52.198;9.902;2022-07-21T08:57:54;100872.06;;;22.45;81.39
17525;BME280;40431;52.198;9.902;2022-07-21T09:00:21;100874.50;;;22.48;80.38
17525;BME280;40431;52.198;9.902;2022-07-21T09:02:47;100879.94;;;22.58;80.36
17525;BME280;40431;52.198;9.902;2022-07-21T09:05:15;100879.41;;;22.62;80.35
17525;BME280;40431;52.198;9.902;2022-07-21T09:07:50;100876.66;;;22.62;79.03
17525;BME280;40431;52.198;9.902;2022-07-21T09:10:21;100880.00;;;22.74;79.41
17525;BME280;40431;52.198;9.902;2022-07-21T09:15:24;100874.47;;;22.74;77.99
17525;BME280;40431;52.198;9.902;2022-07-21T09:18:05;100877.28;;;22.91;77.86
17525;BME280;40431;52.198;9.902;2022-07-21T09:20:33;100875.97;;;22.95;77.12
17525;BME280;40431;52.198;9.902;2022-07-21T09:23:01;100869.72;;;23.01;76.92
17525;BME280;40431;52.198;9.902;2022-07-21T09:25:36;100881.81;;;23.00;76.38
17525;BME280;40431;52.198;9.902;2022-07-21T09:28:16;100876.84;;;23.12;75.30
17525;BME280;40431;52.198;9.902;2022-07-21T09:30:55;100874.59;;;23.07;74.68
17525;BME280;40431;52.198;9.902;2022-07-21T09:33:23;100874.91;;;23.04;74.12
17525;BME280;40431;52.198;9.902;2022-07-21T09:35:57;100882.94;;;23.15;74.66
17525;BME280;40431;52.198;9.902;2022-07-21T09:38:24;100882.47;;;23.28;73.56
17525;BME280;40431;52.198;9.902;2022-07-21T09:40:51;100870.22;;;23.31;72.18
17525;BME280;40431;52.198;9.902;2022-07-21T09:43:31;100880.25;;;23.40;71.92
17525;BME280;40431;52.198;9.902;2022-07-21T09:46:00;100873.47;;;23.34;71.26
17525;BME280;40431;52.198;9.902;2022-07-21T09:48:34;100885.06;;;23.30;71.77
17525;BME280;40431;52.198;9.902;2022-07-21T09:51:24;100875.38;;;23.34;71.54
17525;BME280;40431;52.198;9.902;2022-07-21T09:53:53;100884.91;;;23.48;71.38
17525;BME280;40431;52.198;9.902;2022-07-21T09:56:20;100885.63;;;23.50;70.50
17525;BME280;40431;52.198;9.902;2022-07-21T09:58:49;100880.28;;;23.57;68.90
17525;BME280;40431;52.198;9.902;2022-07-21T10:01:16;100875.81;;;23.72;68.47
17525;BME280;40431;52.198;9.902;2022-07-21T10:03:43;100876.16;;;23.85;68.54
17525;BME280;40431;52.198;9.902;2022-07-21T10:06:11;100869.94;;;24.00;66.79
17525;BME280;40431;52.198;9.902;2022-07-21T10:08:39;100875.47;;;24.00;66.24
17525;BME280;40431;52.198;9.902;2022-07-21T10:11:07;100879.94;;;24.26;65.69
17525;BME280;40431;52.198;9.902;2022-07-21T10:13:34;100869.19;;;24.39;64.33
17525;BME280;40431;52.198;9.902;2022-07-21T10:16:01;100865.00;;;24.43;63.07
17525;BME280;40431;52.198;9.902;2022-07-21T10:18:30;100859.28;;;24.53;63.31
17525;BME280;40431;52.198;9.902;2022-07-21T10:21:02;100853.13;;;24.82;62.13
17525;BME280;40431;52.198;9.902;2022-07-21T10:23:35;100859.81;;;24.96;61.15
17525;BME280;40431;52.198;9.902;2022-07-21T10:26:05;100849.56;;;25.05;60.99
17525;BME280;40431;52.198;9.902;2022-07-21T10:28:32;100852.09;;;25.15;59.22
17525;BME280;40431;52.198;9.902;2022-07-21T10:31:13;100850.91;;;25.41;60.24
17525;BME280;40431;52.198;9.902;2022-07-21T10:33:58;100844.06;;;25.52;59.34
17525;BME280;40431;52.198;9.902;2022-07-21T10:36:45;100845.78;;;25.53;58.77
17525;BME280;40431;52.198;9.902;2022-07-21T10:39:20;100847.72;;;25.52;58.59
17525;BME280;40431;52.198;9.902;2022-07-21T10:41:51;100849.75;;;25.58;58.81
17525;BME280;40431;52.198;9.902;2022-07-21T10:47:21;100847.78;;;25.82;57.42
17525;BME280;40431;52.198;9.902;2022-07-21T10:49:53;100845.22;;;25.80;57.13
17525;BME280;40431;52.198;9.902;2022-07-21T10:52:57;100844.84;;;25.83;57.42
17525;BME280;40431;52.198;9.902;2022-07-21T10:55:26;100834.13;;;25.57;57.83
17525;BME280;40431;52.198;9.902;2022-07-21T10:58:16;100839.63;;;25.42;59.33
17525;BME280;40431;52.198;9.902;2022-07-21T11:00:48;100823.66;;;25.44;59.66
17525;BME280;40431;52.198;9.902;2022-07-21T11:03:18;100816.34;;;25.43;60.11
17525;BME280;40431;52.198;9.902;2022-07-21T11:09:10;100825.34;;;25.92;59.47
17525;BME280;40431;52.198;9.902;2022-07-21T11:11:38;100822.47;;;26.00;57.39
17525;BME280;40431;52.198;9.902;2022-07-21T11:14:08;100822.75;;;25.67;57.97
17525;BME280;40431;52.198;9.902;2022-07-21T11:17:00;100826.84;;;25.56;58.24
17525;BME280;40431;52.198;9.902;2022-07-21T11:19:33;100827.69;;;25.57;58.70
17525;BME280;40431;52.198;9.902;2022-07-21T11:22:02;100837.28;;;25.54;59.81
17525;BME280;40431;52.198;9.902;2022-07-21T11:24:30;100832.53;;;25.63;59.78
17525;BME280;40431;52.198;9.902;2022-07-21T11:26:59;100836.34;;;25.62;58.94
17525;BME280;40431;52.198;9.902;2022-07-21T11:29:27;100842.41;;;25.65;61.52
17525;BME280;40431;52.198;9.902;2022-07-21T11:31:53;100851.19;;;25.54;64.81
17525;BME280;40431;52.198;9.902;2022-07-21T11:34:20;100842.78;;;25.31;64.81
17525;BME280;40431;52.198;9.902;2022-07-21T11:36:46;100840.69;;;25.41;64.91
17525;BME280;40431;52.198;9.902;2022-07-21T11:39:14;100845.75;;;25.61;65.00
17525;BME280;40431;52.198;9.902;2022-07-21T11:41:44;100839.97;;;25.86;64.08
17525;BME280;40431;52.198;9.902;2022-07-21T11:44:10;100832.38;;;26.17;63.12
17525;BME280;40431;52.198;9.902;2022-07-21T11:46:49;100833.88;;;26.43;60.22
17525;BME280;40431;52.198;9.902;2022-07-21T11:49:16;100823.03;;;26.78;60.75
17525;BME280;40431;52.198;9.902;2022-07-21T11:51:50;100825.28;;;26.90;57.69
17525;BME280;40431;52.198;9.902;2022-07-21T11:54:25;100818.88;;;26.89;57.73
17525;BME280;40431;52.198;9.902;2022-07-21T11:56:52;100818.69;;;26.91;57.03
17525;BME280;40431;52.198;9.902;2022-07-21T11:59:20;100817.06;;;26.96;58.89
17525;BME280;40431;52.198;9.902;2022-07-21T12:01:53;100825.97;;;26.92;62.72
17525;BME280;40431;52.198;9.902;2022-07-21T12:04:43;100829.53;;;26.86;66.38
17525;BME280;40431;52.198;9.902;2022-07-21T12:07:19;100832.41;;;26.77;67.67
17525;BME280;40431;52.198;9.902;2022-07-21T12:09:47;100830.97;;;26.52;69.28
17525;BME280;40431;52.198;9.902;2022-07-21T12:12:14;100834.03;;;26.27;69.81
17525;BME280;40431;52.198;9.902;2022-07-21T12:14:48;100828.56;;;26.19;68.02
17525;BME280;40431;52.198;9.902;2022-07-21T12:17:31;100834.22;;;26.10;70.77
17525;BME280;40431;52.198;9.902;2022-07-21T12:19:58;100832.53;;;26.01;70.71
17525;BME280;40431;52.198;9.902;2022-07-21T12:22:32;100832.13;;;25.89;71.56
17525;BME280;40431;52.198;9.902;2022-07-21T12:24:59;100822.56;;;25.92;71.50
17525;BME280;40431;52.198;9.902;2022-07-21T12:27:25;100828.25;;;25.75;71.71
17525;BME280;40431;52.198;9.902;2022-07-21T12:29:52;100829.56;;;25.64;72.53
17525;BME280;40431;52.198;9.902;2022-07-21T12:32:44;100826.22;;;25.46;73.17
17525;BME280;40431;52.198;9.902;2022-07-21T12:35:33;100833.38;;;25.40;73.25
17525;BME280;40431;52.198;9.902;2022-07-21T12:38:06;100829.44;;;25.34;74.24
17525;BME280;40431;52.198;9.902;2022-07-21T12:40:35;100825.09;;;25.32;74.29
17525;BME280;40431;52.198;9.902;2022-07-21T12:43:14;100811.09;;;25.25;75.10
17525;BME280;40431;52.198;9.902;2022-07-21T12:45:52;100812.72;;;25.20;77.34
17525;BME280;40431;52.198;9.902;2022-07-21T12:48:22;100807.94;;;25.05;76.86
17525;BME280;40431;52.198;9.902;2022-07-21T12:51:04;100821.09;;;25.03;76.35
17525;BME280;40431;52.198;9.902;2022-07-21T12:53:32;100812.72;;;25.11;77.74
17525;BME280;40431;52.198;9.902;2022-07-21T12:55:59;100814.00;;;25.32;77.18
17525;BME280;40431;52.198;9.902;2022-07-21T12:58:25;100816.00;;;25.46;75.06
17525;BME280;40431;52.198;9.902;2022-07-21T13:00:51;100813.97;;;25.40;69.53
17525;BME280;40431;52.198;9.902;2022-07-21T13:03:18;100811.88;;;25.42;70.69
17525;BME280;40431;52.198;9.902;2022-07-21T13:05:46;100812.59;;;25.36;68.02